Hails, China
Current Conditions -  °F | °C
As of 3:00 AM on Friday 28 Nov 2014 (Local Time) from ZBHH Reporting Station
Clear Clear  
Wind Chill:   Ceiling: Unl
Heat Index: 14°   Visibility: 5mi
Dew Point: 10°   Wind: 7mph
Humidity: 86%   Direction: 70°ENE
Pressure: 30.09"   Gusts: NA
Location:  41.45°N, 106.38°E
Report Text: ZBHH 271900Z 07003MPS 8000 NSC M10/M12 Q1019 NOSIG
Loading
Personal Weather Stations






























Interactive Weather Map New forecast layout! Learn more

10-Day Weather Forecast

Advertisements
Track Severe Weather on mobile